Data for 06/15/2013

Time Sea-Level Adjusted Pressure Absolute Pressure Temperature Relative Humidity Dew Point Precipitation   
(mb) (inHg) (mb) (inHg) (C) (F) (%) (C) (F) (mm) (in)
00:05 1024 30.24 853 25.19 3.8 38.9 81 0.8 33.4 0 0
00:10 1024 30.24 853 25.19 3.7 38.7 81 0.8 33.5 0 0
00:15 1024 30.24 853 25.19 3.6 38.6 81 0.8 33.4 0 0
00:20 1024 30.24 853 25.19 3.6 38.4 82 0.8 33.4 0 0
00:25 1024 30.24 853 25.19 3.4 38.1 83 0.8 33.4 0 0
00:30 1024 30.24 853 25.19 3.4 38.1 83 0.7 33.2 0 0
00:35 1024 30.24 853 25.19 3.2 37.8 85 0.9 33.6 0 0
00:40 1024 30.24 853 25.19 2.8 37.1 86 0.7 33.3 0 0
00:45 1024 30.24 853 25.19 2.6 36.6 86 0.5 32.9 0 0
00:50 1024 30.24 853 25.19 2.6 36.7 87 0.6 33.1 0 0
00:55 1024 30.24 853 25.19 2.3 36.1 86 0.2 32.4 0 0
01:00 1024 30.24 853 25.19 3.2 37.7 80 0.1 32.1 0 0
01:05 1024 30.24 853 25.19 4.1 39.4 78 0.5 33 0 0
01:10 1024 30.24 853 25.19 4.1 39.3 78 0.6 33 0 0
01:15 1024 30.24 853 25.19 3.8 38.9 80 0.8 33.4 0 0
01:20 1024 30.24 853 25.19 3.7 38.7 75 -0.3 31.4 0 0
01:25 1024 30.24 853 25.19 4 39.3 79 0.7 33.3 0 0
01:30 1024 30.24 853 25.19 2.5 36.5 86 0.3 32.6 0 0
01:35 1024 30.24 853 25.19 1.9 35.5 86 -0.1 31.8 0 0
01:40 1024 30.24 853 25.19 2.2 35.9 85 -0 32 0 0
01:45 1024 30.24 853 25.19 2.8 37 83 0.2 32.4 0 0
01:50 1024 30.24 853 25.19 3 37.5 82 0.3 32.5 0 0
01:55 1024 30.24 853 25.19 3.2 37.8 81 0.3 32.6 0 0
02:00 1024 30.24 853 25.19 2.3 36.1 87 0.4 32.7 0 0
02:05 1024 30.24 853 25.19 1.8 35.3 86 -0.2 31.6 0 0
02:10 1024 30.24 853 25.19 1.9 35.4 89 0.3 32.5 0 0
02:15 1024 30.24 853 25.19 2 35.7 86 -0 32 0 0
02:20 1024 30.24 853 25.19 2.4 36.4 85 0.1 32.2 0 0
02:25 1023 30.21 853 25.19 2.2 36 86 0 32.1 0 0
02:30 1023 30.21 853 25.19 2.1 35.8 86 0 32 0 0
02:35 1023 30.21 853 25.19 2 35.6 87 -0 32 0 0
02:40 1023 30.21 853 25.19 1.7 35.1 87 -0.2 31.6 0 0
02:45 1023 30.21 853 25.19 1.3 34.4 89 -0.3 31.4 0 0
02:50 1023 30.21 853 25.19 0.8 33.5 92 -0.3 31.4 0 0
02:55 1023 30.21 853 25.19 1.1 34 91 -0.3 31.5 0 0
03:00 1023 30.21 853 25.19 1.4 34.6 88 -0.4 31.4 0 0
03:05 1023 30.21 853 25.19 0.8 33.5 91 -0.5 31.1 0 0
03:10 1023 30.21 852 25.16 0.7 33.2 91 -0.6 30.9 0 0
03:15 1023 30.21 852 25.16 1 33.7 88 -0.8 30.6 0 0
03:20 1023 30.21 852 25.16 1 33.7 89 -0.7 30.8 0 0
03:25 1023 30.21 852 25.16 1.1 33.9 89 -0.5 31.1 0 0
03:30 1023 30.21 852 25.16 1.5 34.7 86 -0.6 30.9 0 0
03:35 1023 30.21 852 25.16 1.4 34.5 86 -0.7 30.8 0 0
03:40 1023 30.21 852 25.16 1.4 34.6 85 -0.8 30.5 0 0
03:45 1023 30.21 852 25.16 1.6 34.9 84 -0.8 30.5 0 0
03:50 1023 30.21 852 25.16 1.8 35.2 84 -0.6 30.9 0 0
03:55 1023 30.21 852 25.16 1.8 35.3 84 -0.6 31 0 0
04:00 1023 30.21 852 25.16 1.5 34.7 87 -0.4 31.2 0 0
04:05 1023 30.21 852 25.16 1.7 35 85 -0.6 31 0 0
04:10 1023 30.21 852 25.16 1.2 34.1 87 -0.7 30.7 0 0
04:15 1023 30.21 852 25.16 0.5 32.9 90 -0.9 30.4 0 0
04:20 1023 30.21 852 25.16 0.5 33 90 -0.9 30.3 0 0
04:25 1023 30.21 852 25.16 0.5 33 89 -1.1 30.1 0 0
04:30 1023 30.21 852 25.16 0.4 32.8 92 -0.8 30.6 0 0
04:35 1023 30.21 853 25.19 1 33.8 87 -0.9 30.3 0 0
04:40 1023 30.21 852 25.16 0.7 33.2 90 -0.9 30.5 0 0
04:45 1023 30.21 852 25.16 0.4 32.7 90 -1.1 30 0 0
04:50 1023 30.21 852 25.16 -0.1 31.9 91 -1.4 29.6 0 0
04:55 1023 30.21 852 25.16 -0.4 31.2 93 -1.5 29.3 0 0
05:00 1023 30.21 852 25.16 -0.5 31.1 94 -1.4 29.5 0 0
05:05 1023 30.21 852 25.16 -0.3 31.5 92 -1.4 29.5 0 0
05:10 1023 30.21 852 25.16 -0.3 31.5 92 -1.4 29.4 0 0
05:15 1023 30.21 852 25.16 -0.4 31.3 93 -1.4 29.4 0 0
05:20 1023 30.21 852 25.16 -0.5 31 94 -1.4 29.5 0 0
05:25 1023 30.21 852 25.16 -0.3 31.4 93 -1.4 29.5 0 0
05:30 1023 30.21 852 25.16 0.4 32.7 88 -1.3 29.6 0 0
05:35 1023 30.21 852 25.16 0.5 32.9 89 -1.2 29.9 0 0
05:40 1023 30.21 853 25.19 0.3 32.5 90 -1.2 29.8 0 0
05:45 1023 30.21 852 25.16 0.3 32.5 90 -1.3 29.7 0 0
05:50 1023 30.21 853 25.19 0.2 32.3 90 -1.3 29.6 0 0
05:55 1023 30.21 853 25.19 0.1 32.2 90 -1.3 29.7 0 0
06:00 1023 30.21 852 25.16 0.1 32.2 91 -1.1 30 0 0
06:05 1023 30.21 852 25.16 0.6 33.1 88 -1.1 30 0 0
06:10 1023 30.21 852 25.16 0.8 33.4 90 -0.7 30.7 0 0
06:15 1023 30.21 852 25.16 0.9 33.5 89 -0.7 30.8 0 0
06:20 1023 30.21 852 25.16 0.8 33.4 90 -0.7 30.8 0 0
06:25 1023 30.21 852 25.16 1 33.8 90 -0.5 31.2 0 0
06:30 1023 30.21 853 25.19 1.4 34.6 90 -0.1 31.9 0 0
06:35 1023 30.21 853 25.19 1.7 35.1 87 -0.2 31.6 0 0
06:40 1023 30.21 853 25.19 2.2 36 85 -0 32 0 0
06:45 1023 30.21 853 25.19 2.5 36.6 85 0.3 32.5 0 0
06:50 1023 30.21 853 25.19 3.1 37.5 84 0.6 33.1 0 0
06:55 1023 30.21 853 25.19 3.6 38.5 81 0.7 33.2 0 0
07:00 1023 30.21 853 25.19 4.2 39.5 78 0.7 33.3 0 0
07:05 1023 30.21 853 25.19 4.8 40.7 75 0.9 33.6 0 0
07:10 1023 30.21 853 25.19 5.4 41.7 75 1.3 34.3 0 0
07:15 1023 30.21 853 25.19 5.7 42.3 73 1.3 34.3 0 0
07:20 1023 30.21 853 25.19 6 42.8 73 1.4 34.6 0 0
07:25 1023 30.21 853 25.19 6.3 43.3 75 2.2 35.9 0 0
07:30 1023 30.21 853 25.19 6.7 44 71 1.8 35.3 0 0
07:35 1023 30.21 853 25.19 7 44.6 67 1.3 34.3 0 0
07:40 1023 30.21 853 25.19 7.3 45.1 68 1.8 35.2 0 0
07:45 1023 30.21 853 25.19 7.5 45.5 67 1.8 35.2 0 0
07:50 1023 30.21 853 25.19 7.5 45.5 68 1.9 35.5 0 0
07:55 1023 30.21 853 25.19 7.9 46.3 63 1.3 34.3 0 0
08:00 1023 30.21 853 25.19 8.4 47.1 65 2.2 36 0 0
08:05 1023 30.21 853 25.19 8.8 47.9 60 1.5 34.7 0 0
08:10 1023 30.21 853 25.19 9.1 48.4 60 1.8 35.3 0 0
08:15 1023 30.21 853 25.19 9.5 49.1 59 2 35.6 0 0
08:20 1023 30.21 853 25.19 9.6 49.3 61 2.4 36.4 0 0
08:25 1023 30.21 853 25.19 9.9 49.7 55 1.4 34.5 0 0
08:30 1023 30.21 853 25.19 10.1 50.2 56 1.8 35.3 0 0
08:35 1023 30.21 853 25.19 10.6 51 52 1.2 34.2 0 0
08:40 1023 30.21 853 25.19 10.5 50.9 54 1.6 34.9 0 0
08:45 1023 30.21 853 25.19 10.6 51.1 52 1.3 34.4 0 0
08:50 1023 30.21 853 25.19 10.8 51.4 51 1.2 34.1 0 0
08:55 1023 30.21 853 25.19 11 51.9 52 1.7 35 0 0
09:00 1023 30.21 853 25.19 10.9 51.5 52 1.6 34.8 0 0
09:05 1023 30.21 853 25.19 11.1 51.9 54 2.2 36 0 0
09:10 1023 30.21 853 25.19 11.3 52.3 50 1.3 34.3 0 0
09:15 1023 30.21 853 25.19 11.5 52.7 52 1.9 35.4 0 0
09:20 1023 30.21 853 25.19 11.3 52.4 52 1.9 35.4 0 0
09:25 1023 30.21 853 25.19 11.8 53.2 48 1.3 34.3 0 0
09:30 1023 30.21 853 25.19 11.9 53.4 52 2.3 36.1 0 0
09:35 1023 30.21 853 25.19 12 53.6 54 3.1 37.5 0 0
09:40 1023 30.21 853 25.19 11.7 53.1 51 1.9 35.4 0 0
09:45 1023 30.21 852 25.16 11.9 53.4 59 4.2 39.5 0 0
09:50 1023 30.21 852 25.16 12 53.7 55 3.3 38 0 0
09:55 1023 30.21 852 25.16 12 53.5 56 3.4 38.1 0 0
10:00 1023 30.21 852 25.16 12.2 53.9 51 2.5 36.5 0 0
10:05 1023 30.21 852 25.16 12.3 54.2 48 1.8 35.3 0 0
10:10 1023 30.21 852 25.16 12.2 53.9 52 2.6 36.7 0 0
10:15 1023 30.21 852 25.16 12.4 54.4 57 4.1 39.4 0 0
10:20 1023 30.21 852 25.16 12.5 54.4 54 3.5 38.3 0 0
10:25 1023 30.21 852 25.16 12.6 54.7 55 3.9 38.9 0 0
10:30 1023 30.21 852 25.16 12.8 55 59 5.1 41.3 0 0
10:35 1023 30.21 852 25.16 12.8 55.1 53 3.6 38.4 0 0
10:40 1023 30.21 852 25.16 13 55.3 53 3.7 38.7 0 0
10:45 1023 30.21 852 25.16 13 55.4 57 4.8 40.6 0 0
10:50 1023 30.21 852 25.16 13.3 56 56 4.8 40.6 0 0
10:55 1023 30.21 852 25.16 13.6 56.5 59 5.8 42.4 0 0
11:00 1023 30.21 852 25.16 13.5 56.3 50 3.3 38 0 0
11:05 1023 30.21 852 25.16 13.4 56.1 57 5 41 0 0
11:10 1023 30.21 852 25.16 13.7 56.7 49 3.2 37.7 0 0
11:15 1023 30.21 852 25.16 13.8 56.8 55 5.1 41.1 0 0
11:20 1023 30.21 852 25.16 13.9 57 50 3.8 38.9 0 0
11:25 1022 30.18 852 25.16 14.2 57.5 47 3 37.4 0 0
11:30 1022 30.18 852 25.16 14.2 57.6 45 2.5 36.6 0 0
11:35 1022 30.18 852 25.16 14.2 57.5 48 3.4 38.1 0 0
11:40 1022 30.18 852 25.16 14.6 58.2 52 4.8 40.7 0 0
11:45 1022 30.18 852 25.16 14.7 58.5 55 6 42.7 0 0
11:50 1022 30.18 852 25.16 15 59 47 3.8 38.8 0 0
11:55 1022 30.18 852 25.16 14.8 58.6 51 4.9 40.7 0 0
12:00 1022 30.18 852 25.16 14.9 58.9 43 2.5 36.6 0 0
12:05 1022 30.18 852 25.16 15.1 59.1 44 3 37.5 0 0
12:10 1022 30.18 852 25.16 15.5 59.9 36 0.7 33.2 0 0
12:15 1022 30.18 852 25.16 15.5 59.9 50 5.1 41.2 0 0
12:20 1022 30.18 852 25.16 15.5 59.9 46 4.1 39.3 0 0
12:25 1022 30.18 851 25.13 15.4 59.7 41 2.2 36 0 0
12:30 1022 30.18 851 25.13 15.6 60.1 42 3 37.4 0 0
12:35 1022 30.18 851 25.13 15.5 60 43 3 37.5 0 0
12:40 1022 30.18 851 25.13 15.7 60.3 53 6.3 43.3 0 0
12:45 1022 30.18 851 25.13 16 60.8 45 4 39.2 0 0
12:50 1022 30.18 851 25.13 16.1 60.9 42 3.2 37.8 0 0
12:55 1022 30.18 851 25.13 16.2 61.2 43 3.7 38.6 0 0
13:00 1022 30.18 851 25.13 16.1 60.9 46 4.7 40.4 0 0
13:05 1022 30.18 851 25.13 16.3 61.4 49 5.7 42.2 0 0
13:10 1022 30.18 851 25.13 16.6 61.9 50 6.1 43.1 0 0
13:15 1022 30.18 851 25.13 16.7 62.1 48 5.7 42.2 0 0
13:20 1022 30.18 851 25.13 16.8 62.3 42 3.8 38.8 0 0
13:25 1022 30.18 851 25.13 16.8 62.3 37 2.1 35.8 0 0
13:30 1022 30.18 851 25.13 16.8 62.3 41 3.5 38.3 0 0
13:35 1022 30.18 851 25.13 17 62.5 42 4 39.2 0 0
13:40 1022 30.18 851 25.13 17 62.5 45 5 41 0 0
13:45 1021 30.15 851 25.13 17.3 63.2 49 6.6 43.9 0 0
13:50 1021 30.15 851 25.13 17.2 63 40 3.5 38.3 0 0
13:55 1021 30.15 851 25.13 17.2 62.9 41 3.9 39.1 0 0
14:00 1021 30.15 851 25.13 17.3 63.1 37 2.6 36.7 0 0
14:05 1021 30.15 850 25.1 17.3 63.2 37 2.5 36.5 0 0
14:10 1021 30.15 850 25.1 17.7 63.8 42 4.8 40.6 0 0
14:15 1021 30.15 850 25.1 17.6 63.7 46 6.1 42.9 0 0
14:20 1021 30.15 850 25.1 17.7 63.8 40 4 39.2 0 0
14:25 1021 30.15 850 25.1 17.6 63.6 39 3.6 38.4 0 0
14:30 1021 30.15 850 25.1 17.8 64 45 5.8 42.4 0 0
14:35 1021 30.15 850 25.1 18.1 64.6 43 5.4 41.8 0 0
14:40 1021 30.15 850 25.1 18.1 64.6 52 8.2 46.8 0 0
14:45 1021 30.15 850 25.1 18.4 65.1 38 4 39.3 0 0
14:50 1021 30.15 850 25.1 18.3 64.9 40 4.6 40.2 0 0
14:55 1021 30.15 850 25.1 18.4 65.1 38 3.9 38.9 0 0
15:00 1021 30.15 850 25.1 18.2 64.8 35 2.6 36.6 0 0
15:05 1021 30.15 850 25.1 18.5 65.4 33 2.1 35.9 0 0
15:10 1021 30.15 850 25.1 18.7 65.6 37 3.9 39 0 0
15:15 1020 30.12 850 25.1 18.9 65.9 46 7 44.7 0 0
15:20 1020 30.12 850 25.1 18.8 65.8 40 5.2 41.3 0 0
15:25 1020 30.12 850 25.1 19 66.2 44 6.6 43.8 0 0
15:30 1020 30.12 850 25.1 18.8 65.8 44 6.5 43.7 0 0
15:35 1020 30.12 850 25.1 19 66.1 39 4.8 40.6 0 0
15:40 1020 30.12 849 25.07 19.1 66.4 32 2.3 36.2 0 0
15:45 1020 30.12 849 25.07 19.3 66.7 29 0.8 33.4 0 0
15:50 1020 30.12 849 25.07 19.7 67.4 45 7.5 45.4 0 0
15:55 1020 30.12 849 25.07 20.2 68.4 29 2 35.6 0 0
16:00 1020 30.12 849 25.07 19.9 67.8 32 2.9 37.3 0 0
16:05 1020 30.12 849 25.07 19.7 67.5 34 3.5 38.3 0 0
16:10 1020 30.12 849 25.07 19.8 67.7 37 4.9 40.8 0 0
16:15 1020 30.12 849 25.07 20 68 34 4 39.2 0 0
16:20 1020 30.12 849 25.07 20 68 34 3.7 38.6 0 0
16:25 1020 30.12 849 25.07 20.1 68.1 41 6.5 43.7 0 0
16:30 1020 30.12 849 25.07 19.9 67.9 41 6.4 43.6 0 0
16:35 1020 30.12 849 25.07 19.9 67.9 33 3.4 38 0 0
16:40 1020 30.12 849 25.07 20.1 68.2 35 4.4 39.9 0 0
16:45 1020 30.12 849 25.07 20.1 68.2 41 6.7 44 0 0
16:50 1020 30.12 849 25.07 20 67.9 36 4.7 40.5 0 0
16:55 1020 30.12 849 25.07 19.8 67.6 38 5.1 41.1 0 0
17:00 1020 30.12 849 25.07 19.7 67.5 33 3 37.4 0 0
17:05 1020 30.12 849 25.07 19.7 67.5 35 4 39.2 0 0
17:10 1020 30.12 849 25.07 19.9 67.7 36 4.6 40.2 0 0
17:15 1020 30.12 849 25.07 19.8 67.7 36 4.6 40.2 0 0
17:20 1020 30.12 849 25.07 20.1 68.1 33 3.5 38.3 0 0
17:25 1020 30.12 849 25.07 19.8 67.6 35 3.9 39 0 0
17:30 1020 30.12 849 25.07 19.7 67.5 34 3.6 38.6 0 0
17:35 1020 30.12 849 25.07 19.7 67.5 35 3.8 38.9 0 0
17:40 1020 30.12 849 25.07 19.7 67.4 33 3 37.5 0 0
17:45 1019 30.09 849 25.07 19.9 67.7 35 3.9 39.1 0 0
17:50 1019 30.09 849 25.07 19.9 67.8 35 4.2 39.6 0 0
17:55 1019 30.09 849 25.07 20 67.9 35 4.4 39.9 0 0
18:00 1019 30.09 849 25.07 20 68.1 35 4.2 39.6 0 0
18:05 1019 30.09 849 25.07 20.2 68.4 32 3.2 37.7 0 0
18:10 1019 30.09 849 25.07 20.1 68.2 33 3.5 38.3 0 0
18:15 1019 30.09 848 25.04 20.2 68.3 32 3.1 37.5 0 0
18:20 1019 30.09 848 25.04 20.1 68.2 33 3.6 38.4 0 0
18:25 1019 30.09 848 25.04 20.3 68.5 26 0.5 32.8 0 0
18:30 1019 30.09 848 25.04 20.7 69.3 35 4.7 40.5 0 0
18:35 1019 30.09 848 25.04 20.7 69.2 33 4.2 39.5 0 0
18:40 1019 30.09 848 25.04 20.4 68.8 28 1.3 34.4 0 0
18:45 1019 30.09 848 25.04 20.6 69 33 4 39.1 0 0
18:50 1019 30.09 848 25.04 20.2 68.4 32 3.2 37.8 0 0
18:55 1019 30.09 848 25.04 20.3 68.6 32 3.1 37.6 0 0
19:00 1019 30.09 848 25.04 20.5 68.9 32 3.3 38 0 0
19:05 1019 30.09 848 25.04 20.2 68.3 31 2.8 37 0 0
19:10 1019 30.09 848 25.04 20.2 68.4 31 2.9 37.2 0 0
19:15 1019 30.09 848 25.04 20 68 33 3.3 38 0 0
19:20 1019 30.09 848 25.04 20.1 68.2 33 3.4 38.2 0 0
19:25 1019 30.09 848 25.04 20.5 68.9 30 2.6 36.8 0 0
19:30 1019 30.09 848 25.04 20.8 69.4 33 3.9 39 0 0
19:35 1019 30.09 849 25.07 21.5 70.6 32 4.1 39.4 0 0
19:40 1019 30.09 849 25.07 21.1 70 33 4.4 39.9 0 0
19:45 1019 30.09 849 25.07 21 69.9 31 3.5 38.2 0 0
19:50 1019 30.09 849 25.07 20.4 68.8 35 4.6 40.3 0 0
19:55 1019 30.09 849 25.07 19.7 67.5 32 2.6 36.8 0 0
20:00 1019 30.09 849 25.07 19.6 67.3 32 2.7 36.8 0 0
20:05 1019 30.09 849 25.07 20.2 68.3 32 3 37.3 0 0
20:10 1019 30.09 849 25.07 20.8 69.4 32 3.7 38.6 0 0
20:15 1019 30.09 849 25.07 20.4 68.7 40 6.6 43.9 0 0
20:20 1019 30.09 849 25.07 19.8 67.7 35 4.1 39.3 0 0
20:25 1020 30.12 849 25.07 19.5 67.1 33 3 37.5 0 0
20:30 1020 30.12 849 25.07 19 66.2 49 8.3 46.9 0 0
20:35 1020 30.12 849 25.07 17.5 63.6 59 9.6 49.3 0 0
20:40 1020 30.12 849 25.07 16.2 61.1 58 8.1 46.5 0 0
20:45 1020 30.12 849 25.07 15.5 59.9 55 6.6 43.9 0 0
20:50 1020 30.12 849 25.07 15.2 59.4 53 5.7 42.2 0 0
20:55 1020 30.12 849 25.07 15.2 59.3 61 7.8 46 0 0
21:00 1020 30.12 849 25.07 13.9 57 65 7.5 45.4 0 0
21:05 1020 30.12 849 25.07 12.6 54.6 71 7.4 45.3 0 0
21:10 1020 30.12 849 25.07 11.6 52.9 74 7.1 44.7 0 0
21:15 1020 30.12 849 25.07 10.8 51.5 78 7.1 44.8 0 0
21:20 1020 30.12 849 25.07 10 49.9 82 7.1 44.8 0 0
21:25 1020 30.12 849 25.07 9.4 48.9 85 7.1 44.7 0 0
21:30 1020 30.12 849 25.07 9.1 48.4 85 6.7 44 0 0
21:35 1020 30.12 849 25.07 8.8 47.9 85 6.4 43.6 0 0
21:40 1020 30.12 849 25.07 9.2 48.5 80 5.9 42.7 0 0
21:45 1020 30.12 849 25.07 9.1 48.3 81 6 42.8 0 0
21:50 1020 30.12 849 25.07 8.7 47.6 82 5.7 42.3 0 0
21:55 1020 30.12 849 25.07 8.7 47.7 80 5.5 41.9 0 0
22:00 1020 30.12 849 25.07 9 48.2 80 5.8 42.4 0 0
22:05 1020 30.12 849 25.07 8.7 47.7 81 5.7 42.3 0 0
22:10 1020 30.12 849 25.07 8.5 47.3 80 5.3 41.6 0 0
22:15 1020 30.12 849 25.07 8.3 46.9 81 5.1 41.3 0 0
22:20 1020 30.12 850 25.1 8 46.4 80 4.8 40.6 0 0
22:25 1020 30.12 850 25.1 8.3 47 76 4.4 39.9 0 0
22:30 1020 30.12 850 25.1 9.3 48.8 74 4.9 40.9 0 0
22:35 1021 30.15 850 25.1 9.4 48.8 74 4.9 40.8 0 0
22:40 1021 30.15 850 25.1 9 48.3 73 4.5 40.2 0 0
22:45 1021 30.15 850 25.1 9.2 48.5 70 4 39.2 0 0
22:50 1021 30.15 850 25.1 9.9 49.9 62 3 37.4 0 0
22:55 1021 30.15 850 25.1 11.1 51.9 59 3.4 38.1 0 0
23:00 1021 30.15 850 25.1 11.4 52.5 58 3.4 38.1 0 0
23:05 1021 30.15 850 25.1 11.4 52.4 59 3.7 38.7 0 0
23:10 1021 30.15 850 25.1 10.7 51.3 62 3.7 38.7 0 0
23:15 1021 30.15 850 25.1 10.5 51 62 3.6 38.5 0 0
23:20 1021 30.15 850 25.1 10.3 50.5 70 5.1 41.2 0 0
23:25 1021 30.15 850 25.1 8.9 47.9 67 3.2 37.7 0 0
23:30 1021 30.15 850 25.1 9.6 49.2 68 4.1 39.3 0 0
23:35 1021 30.15 850 25.1 9.5 49 67 3.6 38.4 0 0
23:40 1021 30.15 851 25.13 9.1 48.4 69 3.8 38.8 0 0
23:45 1021 30.15 850 25.1 8.7 47.6 71 3.7 38.7 0 0
23:50 1021 30.15 850 25.1 7.7 45.9 78 4.1 39.4 0 0
23:55 1021 30.15 850 25.1 7.2 45 77 3.4 38.2 0 0
24:00 1021 30.15 850 25.1 7.5 45.6 72 2.8 37.1 0 0